LEVX/VGO METAR and TAF weather

Enter ICAO airport designator
Station Type Date Time Source
LEVX METAR 2019/02/23 00:30 UTC NOAA

LEVX 230030Z 20010KT CAVOK 13/09 Q1028 NOSIG


Station Type Date Time Source
LEVX Decoded METAR 2019/02/23 00:30 UTC NOAA

Vigo / Peinador, Spain (LEVX) 42-13N 008-38W 255M
Feb 22, 2019 - 07:30 PM EST / 2019.02.23 0030 UTC
Wind: from the SSW (200 degrees) at 12 MPH (10 KT):0
Visibility: greater than 7 mile(s):0
Temperature: 55 F (13 C)
Dew Point: 48 F (9 C)
Relative Humidity: 76%
Pressure (altimeter): 30.36 in. Hg (1028 hPa)
ob: LEVX 230030Z 20010KT CAVOK 13/09 Q1028 NOSIG
cycle: 0

Station Type Date Time Source
LEVX TAF 2019/02/22 18:27 UTC NOAA

TAF LEVX 221700Z 2218/2318 20009KT CAVOK TX19/2315Z TN09/2306Z PROB30 2218/2220 34015G25KT


Example: see airport list